sensor_id;sensor_type;location;lat;lon;timestamp;P1;durP1;ratioP1;P2;durP2;ratioP2
6127;SDS011;7073;42.672;23.256;2023-08-31T00:02:22;4.80;;;4.60;;
6127;SDS011;7073;42.672;23.256;2023-08-31T00:04:50;4.40;;;4.20;;
6127;SDS011;7073;42.672;23.256;2023-08-31T00:07:17;4.60;;;4.40;;
6127;SDS011;7073;42.672;23.256;2023-08-31T00:09:44;4.30;;;4.10;;
6127;SDS011;7073;42.672;23.256;2023-08-31T00:12:10;4.70;;;4.50;;
6127;SDS011;7073;42.672;23.256;2023-08-31T00:14:36;4.50;;;4.30;;
6127;SDS011;7073;42.672;23.256;2023-08-31T00:17:04;4.60;;;4.40;;
6127;SDS011;7073;42.672;23.256;2023-08-31T00:19:32;4.30;;;4.10;;
6127;SDS011;7073;42.672;23.256;2023-08-31T00:21:58;4.50;;;4.30;;
6127;SDS011;7073;42.672;23.256;2023-08-31T00:24:25;4.40;;;4.20;;
6127;SDS011;7073;42.672;23.256;2023-08-31T00:26:55;6.40;;;5.30;;
6127;SDS011;7073;42.672;23.256;2023-08-31T00:29:21;4.87;;;4.67;;
6127;SDS011;7073;42.672;23.256;2023-08-31T00:31:48;4.20;;;4.00;;
6127;SDS011;7073;42.672;23.256;2023-08-31T00:34:16;4.30;;;4.10;;
6127;SDS011;7073;42.672;23.256;2023-08-31T00:36:44;4.20;;;4.00;;
6127;SDS011;7073;42.672;23.256;2023-08-31T00:39:10;4.30;;;4.10;;
6127;SDS011;7073;42.672;23.256;2023-08-31T00:41:37;4.23;;;4.03;;
6127;SDS011;7073;42.672;23.256;2023-08-31T00:44:04;7.70;;;7.20;;
6127;SDS011;7073;42.672;23.256;2023-08-31T00:46:31;4.20;;;4.00;;
6127;SDS011;7073;42.672;23.256;2023-08-31T00:48:57;4.40;;;4.20;;
6127;SDS011;7073;42.672;23.256;2023-08-31T00:51:24;4.10;;;3.90;;
6127;SDS011;7073;42.672;23.256;2023-08-31T00:53:52;4.30;;;4.10;;
6127;SDS011;7073;42.672;23.256;2023-08-31T00:56:20;4.10;;;3.90;;
6127;SDS011;7073;42.672;23.256;2023-08-31T00:58:46;5.33;;;5.03;;
6127;SDS011;7073;42.672;23.256;2023-08-31T01:01:15;4.40;;;4.20;;
6127;SDS011;7073;42.672;23.256;2023-08-31T01:03:47;4.40;;;4.20;;
6127;SDS011;7073;42.672;23.256;2023-08-31T01:06:18;4.33;;;4.13;;
6127;SDS011;7073;42.672;23.256;2023-08-31T01:08:50;4.50;;;4.30;;
6127;SDS011;7073;42.672;23.256;2023-08-31T01:11:22;4.23;;;4.03;;
6127;SDS011;7073;42.672;23.256;2023-08-31T01:13:51;4.17;;;3.97;;
6127;SDS011;7073;42.672;23.256;2023-08-31T01:16:17;4.20;;;4.00;;
6127;SDS011;7073;42.672;23.256;2023-08-31T01:18:45;4.93;;;4.37;;
6127;SDS011;7073;42.672;23.256;2023-08-31T01:21:17;4.30;;;4.10;;
6127;SDS011;7073;42.672;23.256;2023-08-31T01:23:51;4.37;;;4.17;;
6127;SDS011;7073;42.672;23.256;2023-08-31T01:26:18;4.40;;;4.20;;
6127;SDS011;7073;42.672;23.256;2023-08-31T01:28:45;4.30;;;4.10;;
6127;SDS011;7073;42.672;23.256;2023-08-31T01:31:12;4.30;;;4.10;;
6127;SDS011;7073;42.672;23.256;2023-08-31T01:33:38;4.40;;;4.20;;
6127;SDS011;7073;42.672;23.256;2023-08-31T01:36:07;4.23;;;4.03;;
6127;SDS011;7073;42.672;23.256;2023-08-31T01:38:35;4.30;;;4.10;;
6127;SDS011;7073;42.672;23.256;2023-08-31T01:41:06;4.30;;;4.10;;
6127;SDS011;7073;42.672;23.256;2023-08-31T01:43:34;4.20;;;4.00;;
6127;SDS011;7073;42.672;23.256;2023-08-31T01:46:01;4.60;;;4.40;;
6127;SDS011;7073;42.672;23.256;2023-08-31T01:48:28;5.07;;;4.77;;
6127;SDS011;7073;42.672;23.256;2023-08-31T01:50:55;4.17;;;3.97;;
6127;SDS011;7073;42.672;23.256;2023-08-31T01:53:21;4.30;;;4.10;;
6127;SDS011;7073;42.672;23.256;2023-08-31T01:55:47;4.10;;;3.90;;
6127;SDS011;7073;42.672;23.256;2023-08-31T01:58:15;4.10;;;3.90;;
6127;SDS011;7073;42.672;23.256;2023-08-31T02:00:42;4.93;;;4.73;;
6127;SDS011;7073;42.672;23.256;2023-08-31T02:03:09;4.60;;;4.40;;
6127;SDS011;7073;42.672;23.256;2023-08-31T02:05:36;4.20;;;4.00;;
6127;SDS011;7073;42.672;23.256;2023-08-31T02:08:03;5.07;;;4.77;;
6127;SDS011;7073;42.672;23.256;2023-08-31T02:10:29;4.50;;;4.30;;
6127;SDS011;7073;42.672;23.256;2023-08-31T02:12:56;4.20;;;4.00;;
6127;SDS011;7073;42.672;23.256;2023-08-31T02:15:24;4.30;;;4.10;;
6127;SDS011;7073;42.672;23.256;2023-08-31T02:17:50;4.30;;;4.10;;
6127;SDS011;7073;42.672;23.256;2023-08-31T02:20:17;5.17;;;4.97;;
6127;SDS011;7073;42.672;23.256;2023-08-31T02:22:45;4.10;;;3.90;;
6127;SDS011;7073;42.672;23.256;2023-08-31T02:25:12;4.40;;;4.20;;
6127;SDS011;7073;42.672;23.256;2023-08-31T02:27:39;4.97;;;4.77;;
6127;SDS011;7073;42.672;23.256;2023-08-31T02:30:06;4.47;;;4.27;;
6127;SDS011;7073;42.672;23.256;2023-08-31T02:32:34;5.17;;;4.87;;
6127;SDS011;7073;42.672;23.256;2023-08-31T02:35:01;4.20;;;4.00;;
6127;SDS011;7073;42.672;23.256;2023-08-31T02:37:28;4.40;;;4.20;;
6127;SDS011;7073;42.672;23.256;2023-08-31T02:39:54;3.80;;;3.60;;
6127;SDS011;7073;42.672;23.256;2023-08-31T02:42:21;4.27;;;4.07;;
6127;SDS011;7073;42.672;23.256;2023-08-31T02:44:51;4.73;;;4.53;;
6127;SDS011;7073;42.672;23.256;2023-08-31T02:47:17;4.30;;;4.10;;
6127;SDS011;7073;42.672;23.256;2023-08-31T02:49:45;4.03;;;3.83;;
6127;SDS011;7073;42.672;23.256;2023-08-31T02:52:13;4.00;;;3.80;;
6127;SDS011;7073;42.672;23.256;2023-08-31T02:54:39;4.00;;;3.80;;
6127;SDS011;7073;42.672;23.256;2023-08-31T02:57:06;3.90;;;3.70;;
6127;SDS011;7073;42.672;23.256;2023-08-31T02:59:32;3.73;;;3.53;;
6127;SDS011;7073;42.672;23.256;2023-08-31T03:02:01;5.20;;;5.00;;
6127;SDS011;7073;42.672;23.256;2023-08-31T03:04:27;4.00;;;3.80;;
6127;SDS011;7073;42.672;23.256;2023-08-31T03:06:55;3.90;;;3.70;;
6127;SDS011;7073;42.672;23.256;2023-08-31T03:09:22;4.10;;;3.90;;
6127;SDS011;7073;42.672;23.256;2023-08-31T03:11:48;4.00;;;3.80;;
6127;SDS011;7073;42.672;23.256;2023-08-31T03:14:15;4.27;;;4.07;;
6127;SDS011;7073;42.672;23.256;2023-08-31T03:16:41;3.70;;;3.50;;
6127;SDS011;7073;42.672;23.256;2023-08-31T03:19:08;3.93;;;3.73;;
6127;SDS011;7073;42.672;23.256;2023-08-31T03:21:34;3.80;;;3.60;;
6127;SDS011;7073;42.672;23.256;2023-08-31T03:24:02;3.90;;;3.70;;
6127;SDS011;7073;42.672;23.256;2023-08-31T03:26:29;5.87;;;5.30;;
6127;SDS011;7073;42.672;23.256;2023-08-31T03:28:55;4.03;;;3.83;;
6127;SDS011;7073;42.672;23.256;2023-08-31T03:31:22;3.93;;;3.73;;
6127;SDS011;7073;42.672;23.256;2023-08-31T03:33:49;4.27;;;4.07;;
6127;SDS011;7073;42.672;23.256;2023-08-31T03:36:16;4.10;;;3.90;;
6127;SDS011;7073;42.672;23.256;2023-08-31T03:38:42;3.93;;;3.73;;
6127;SDS011;7073;42.672;23.256;2023-08-31T03:41:10;3.43;;;3.30;;
6127;SDS011;7073;42.672;23.256;2023-08-31T03:43:37;5.70;;;5.40;;
6127;SDS011;7073;42.672;23.256;2023-08-31T03:46:04;3.63;;;3.43;;
6127;SDS011;7073;42.672;23.256;2023-08-31T03:48:30;3.70;;;3.50;;
6127;SDS011;7073;42.672;23.256;2023-08-31T03:50:57;3.97;;;3.77;;
6127;SDS011;7073;42.672;23.256;2023-08-31T03:53:23;3.80;;;3.60;;
6127;SDS011;7073;42.672;23.256;2023-08-31T03:55:50;3.90;;;3.70;;
6127;SDS011;7073;42.672;23.256;2023-08-31T03:58:18;3.70;;;3.50;;
6127;SDS011;7073;42.672;23.256;2023-08-31T04:00:45;3.90;;;3.70;;
6127;SDS011;7073;42.672;23.256;2023-08-31T04:03:14;3.70;;;3.50;;
6127;SDS011;7073;42.672;23.256;2023-08-31T04:05:41;4.00;;;3.80;;
6127;SDS011;7073;42.672;23.256;2023-08-31T04:08:07;3.90;;;3.70;;
6127;SDS011;7073;42.672;23.256;2023-08-31T04:10:34;3.70;;;3.50;;
6127;SDS011;7073;42.672;23.256;2023-08-31T04:13:00;4.00;;;3.80;;
6127;SDS011;7073;42.672;23.256;2023-08-31T04:15:28;5.33;;;4.93;;
6127;SDS011;7073;42.672;23.256;2023-08-31T04:17:56;4.93;;;4.63;;
6127;SDS011;7073;42.672;23.256;2023-08-31T04:20:22;4.10;;;3.90;;
6127;SDS011;7073;42.672;23.256;2023-08-31T04:22:49;3.90;;;3.70;;
6127;SDS011;7073;42.672;23.256;2023-08-31T04:25:15;3.80;;;3.60;;
6127;SDS011;7073;42.672;23.256;2023-08-31T04:27:42;3.70;;;3.50;;
6127;SDS011;7073;42.672;23.256;2023-08-31T04:30:10;4.47;;;4.17;;
6127;SDS011;7073;42.672;23.256;2023-08-31T04:32:39;3.43;;;3.33;;
6127;SDS011;7073;42.672;23.256;2023-08-31T04:35:05;3.50;;;3.30;;
6127;SDS011;7073;42.672;23.256;2023-08-31T04:37:32;3.43;;;3.30;;
6127;SDS011;7073;42.672;23.256;2023-08-31T04:39:58;3.33;;;3.23;;
6127;SDS011;7073;42.672;23.256;2023-08-31T04:42:25;3.70;;;3.50;;
6127;SDS011;7073;42.672;23.256;2023-08-31T04:44:52;3.30;;;3.20;;
6127;SDS011;7073;42.672;23.256;2023-08-31T04:47:18;3.50;;;3.33;;
6127;SDS011;7073;42.672;23.256;2023-08-31T04:49:46;3.60;;;3.40;;
6127;SDS011;7073;42.672;23.256;2023-08-31T04:52:12;3.30;;;3.20;;
6127;SDS011;7073;42.672;23.256;2023-08-31T04:54:39;3.80;;;3.60;;
6127;SDS011;7073;42.672;23.256;2023-08-31T04:57:06;3.70;;;3.50;;
6127;SDS011;7073;42.672;23.256;2023-08-31T04:59:32;3.70;;;3.50;;
6127;SDS011;7073;42.672;23.256;2023-08-31T05:01:59;4.03;;;3.83;;
6127;SDS011;7073;42.672;23.256;2023-08-31T05:04:25;4.20;;;4.00;;
6127;SDS011;7073;42.672;23.256;2023-08-31T05:06:55;4.13;;;3.93;;
6127;SDS011;7073;42.672;23.256;2023-08-31T05:09:21;4.10;;;3.90;;
6127;SDS011;7073;42.672;23.256;2023-08-31T05:11:48;4.30;;;4.10;;
6127;SDS011;7073;42.672;23.256;2023-08-31T05:14:14;4.27;;;4.07;;
6127;SDS011;7073;42.672;23.256;2023-08-31T05:16:41;4.20;;;4.00;;
6127;SDS011;7073;42.672;23.256;2023-08-31T05:19:07;4.20;;;4.00;;
6127;SDS011;7073;42.672;23.256;2023-08-31T05:21:34;4.00;;;3.80;;
6127;SDS011;7073;42.672;23.256;2023-08-31T05:24:02;4.40;;;4.20;;
6127;SDS011;7073;42.672;23.256;2023-08-31T05:26:29;4.80;;;4.60;;
6127;SDS011;7073;42.672;23.256;2023-08-31T05:28:55;4.40;;;4.20;;
6127;SDS011;7073;42.672;23.256;2023-08-31T05:31:22;4.37;;;4.17;;
6127;SDS011;7073;42.672;23.256;2023-08-31T05:33:48;4.50;;;4.30;;
6127;SDS011;7073;42.672;23.256;2023-08-31T05:36:15;4.30;;;4.10;;
6127;SDS011;7073;42.672;23.256;2023-08-31T05:38:42;4.10;;;3.90;;
6127;SDS011;7073;42.672;23.256;2023-08-31T05:41:10;4.10;;;3.90;;
6127;SDS011;7073;42.672;23.256;2023-08-31T05:43:37;4.00;;;3.80;;
6127;SDS011;7073;42.672;23.256;2023-08-31T05:46:05;4.00;;;3.80;;
6127;SDS011;7073;42.672;23.256;2023-08-31T05:48:31;4.20;;;4.00;;
6127;SDS011;7073;42.672;23.256;2023-08-31T05:50:58;4.43;;;4.23;;
6127;SDS011;7073;42.672;23.256;2023-08-31T05:53:24;4.20;;;4.00;;
6127;SDS011;7073;42.672;23.256;2023-08-31T05:55:51;4.73;;;4.53;;
6127;SDS011;7073;42.672;23.256;2023-08-31T05:58:19;4.70;;;4.40;;
6127;SDS011;7073;42.672;23.256;2023-08-31T06:00:45;5.90;;;5.60;;
6127;SDS011;7073;42.672;23.256;2023-08-31T06:03:12;4.20;;;4.00;;
6127;SDS011;7073;42.672;23.256;2023-08-31T06:05:38;4.30;;;4.10;;
6127;SDS011;7073;42.672;23.256;2023-08-31T06:08:05;4.40;;;4.20;;
6127;SDS011;7073;42.672;23.256;2023-08-31T06:10:31;4.53;;;4.33;;
6127;SDS011;7073;42.672;23.256;2023-08-31T06:12:58;4.10;;;3.90;;
6127;SDS011;7073;42.672;23.256;2023-08-31T06:15:26;4.50;;;4.30;;
6127;SDS011;7073;42.672;23.256;2023-08-31T06:17:53;4.40;;;4.20;;
6127;SDS011;7073;42.672;23.256;2023-08-31T06:20:19;4.20;;;4.00;;
6127;SDS011;7073;42.672;23.256;2023-08-31T06:22:46;4.30;;;4.10;;
6127;SDS011;7073;42.672;23.256;2023-08-31T06:25:12;5.13;;;4.93;;
6127;SDS011;7073;42.672;23.256;2023-08-31T06:27:41;4.57;;;4.37;;
6127;SDS011;7073;42.672;23.256;2023-08-31T06:30:08;4.20;;;4.00;;
6127;SDS011;7073;42.672;23.256;2023-08-31T06:32:38;4.30;;;4.10;;
6127;SDS011;7073;42.672;23.256;2023-08-31T06:35:05;4.57;;;4.37;;
6127;SDS011;7073;42.672;23.256;2023-08-31T06:37:32;4.63;;;4.43;;
6127;SDS011;7073;42.672;23.256;2023-08-31T06:39:58;4.47;;;4.27;;
6127;SDS011;7073;42.672;23.256;2023-08-31T06:42:25;4.63;;;4.43;;
6127;SDS011;7073;42.672;23.256;2023-08-31T06:44:51;4.90;;;4.70;;
6127;SDS011;7073;42.672;23.256;2023-08-31T06:47:18;4.70;;;4.50;;
6127;SDS011;7073;42.672;23.256;2023-08-31T06:49:46;4.60;;;4.40;;
6127;SDS011;7073;42.672;23.256;2023-08-31T06:52:13;4.70;;;4.50;;
6127;SDS011;7073;42.672;23.256;2023-08-31T06:54:41;4.43;;;4.23;;
6127;SDS011;7073;42.672;23.256;2023-08-31T06:57:07;5.27;;;4.97;;
6127;SDS011;7073;42.672;23.256;2023-08-31T06:59:34;4.43;;;4.23;;
6127;SDS011;7073;42.672;23.256;2023-08-31T07:02:00;4.30;;;4.10;;
6127;SDS011;7073;42.672;23.256;2023-08-31T07:04:27;4.50;;;4.30;;
6127;SDS011;7073;42.672;23.256;2023-08-31T07:06:54;4.90;;;4.70;;
6127;SDS011;7073;42.672;23.256;2023-08-31T07:09:21;4.40;;;4.20;;
6127;SDS011;7073;42.672;23.256;2023-08-31T07:11:47;4.50;;;4.30;;
6127;SDS011;7073;42.672;23.256;2023-08-31T07:14:14;4.50;;;4.30;;
6127;SDS011;7073;42.672;23.256;2023-08-31T07:16:41;6.37;;;5.70;;
6127;SDS011;7073;42.672;23.256;2023-08-31T07:19:07;4.50;;;4.30;;
6127;SDS011;7073;42.672;23.256;2023-08-31T07:21:34;5.77;;;5.47;;
6127;SDS011;7073;42.672;23.256;2023-08-31T07:24:02;5.00;;;4.80;;
6127;SDS011;7073;42.672;23.256;2023-08-31T07:26:29;4.40;;;4.20;;
6127;SDS011;7073;42.672;23.256;2023-08-31T07:28:56;4.40;;;4.20;;
6127;SDS011;7073;42.672;23.256;2023-08-31T07:31:22;4.20;;;4.00;;
6127;SDS011;7073;42.672;23.256;2023-08-31T07:33:49;4.30;;;4.10;;
6127;SDS011;7073;42.672;23.256;2023-08-31T07:36:15;4.50;;;4.30;;
6127;SDS011;7073;42.672;23.256;2023-08-31T07:38:42;4.70;;;4.50;;
6127;SDS011;7073;42.672;23.256;2023-08-31T07:41:10;4.30;;;4.10;;
6127;SDS011;7073;42.672;23.256;2023-08-31T07:43:36;4.80;;;4.40;;
6127;SDS011;7073;42.672;23.256;2023-08-31T07:46:03;5.30;;;5.10;;
6127;SDS011;7073;42.672;23.256;2023-08-31T07:48:29;5.87;;;5.57;;
6127;SDS011;7073;42.672;23.256;2023-08-31T07:50:56;6.30;;;5.90;;
6127;SDS011;7073;42.672;23.256;2023-08-31T07:53:23;6.20;;;6.00;;
6127;SDS011;7073;42.672;23.256;2023-08-31T07:55:52;6.10;;;5.90;;
6127;SDS011;7073;42.672;23.256;2023-08-31T07:58:21;6.50;;;6.20;;
6127;SDS011;7073;42.672;23.256;2023-08-31T08:00:48;5.90;;;5.70;;
6127;SDS011;7073;42.672;23.256;2023-08-31T08:03:15;7.23;;;6.83;;
6127;SDS011;7073;42.672;23.256;2023-08-31T08:05:41;5.67;;;5.47;;
6127;SDS011;7073;42.672;23.256;2023-08-31T08:08:08;5.53;;;5.33;;
6127;SDS011;7073;42.672;23.256;2023-08-31T08:10:34;5.67;;;5.37;;
6127;SDS011;7073;42.672;23.256;2023-08-31T08:13:01;4.60;;;4.40;;
6127;SDS011;7073;42.672;23.256;2023-08-31T08:15:29;5.90;;;5.50;;
6127;SDS011;7073;42.672;23.256;2023-08-31T08:17:56;18.63;;;6.10;;
6127;SDS011;7073;42.672;23.256;2023-08-31T08:20:23;7.93;;;7.23;;
6127;SDS011;7073;42.672;23.256;2023-08-31T08:22:50;8.97;;;8.27;;
6127;SDS011;7073;42.672;23.256;2023-08-31T08:25:17;6.10;;;5.90;;
6127;SDS011;7073;42.672;23.256;2023-08-31T08:27:44;6.23;;;5.93;;
6127;SDS011;7073;42.672;23.256;2023-08-31T08:30:10;7.83;;;7.40;;
6127;SDS011;7073;42.672;23.256;2023-08-31T08:32:38;8.67;;;8.00;;
6127;SDS011;7073;42.672;23.256;2023-08-31T08:35:05;7.50;;;7.00;;
6127;SDS011;7073;42.672;23.256;2023-08-31T08:37:32;5.70;;;5.50;;
6127;SDS011;7073;42.672;23.256;2023-08-31T08:39:59;5.40;;;5.20;;
6127;SDS011;7073;42.672;23.256;2023-08-31T08:42:25;6.87;;;6.47;;
6127;SDS011;7073;42.672;23.256;2023-08-31T08:44:52;6.20;;;6.00;;
6127;SDS011;7073;42.672;23.256;2023-08-31T08:47:18;5.73;;;5.53;;
6127;SDS011;7073;42.672;23.256;2023-08-31T08:49:47;6.13;;;5.83;;
6127;SDS011;7073;42.672;23.256;2023-08-31T08:52:13;5.53;;;5.33;;
6127;SDS011;7073;42.672;23.256;2023-08-31T08:54:40;7.93;;;7.20;;
6127;SDS011;7073;42.672;23.256;2023-08-31T08:57:07;5.50;;;5.30;;
6127;SDS011;7073;42.672;23.256;2023-08-31T08:59:33;8.13;;;7.53;;
6127;SDS011;7073;42.672;23.256;2023-08-31T09:02:00;5.50;;;5.30;;
6127;SDS011;7073;42.672;23.256;2023-08-31T09:04:28;6.67;;;6.17;;
6127;SDS011;7073;42.672;23.256;2023-08-31T09:06:57;5.30;;;5.10;;
6127;SDS011;7073;42.672;23.256;2023-08-31T09:09:23;6.80;;;6.40;;
6127;SDS011;7073;42.672;23.256;2023-08-31T09:11:50;4.80;;;4.60;;
6127;SDS011;7073;42.672;23.256;2023-08-31T09:14:17;5.23;;;4.93;;
6127;SDS011;7073;42.672;23.256;2023-08-31T09:16:44;6.27;;;5.97;;
6127;SDS011;7073;42.672;23.256;2023-08-31T09:19:17;8.40;;;4.97;;
6127;SDS011;7073;42.672;23.256;2023-08-31T09:21:44;4.70;;;4.50;;
6127;SDS011;7073;42.672;23.256;2023-08-31T09:24:12;5.40;;;5.10;;
6127;SDS011;7073;42.672;23.256;2023-08-31T09:26:39;5.80;;;5.23;;
6127;SDS011;7073;42.672;23.256;2023-08-31T09:29:06;5.50;;;5.20;;
6127;SDS011;7073;42.672;23.256;2023-08-31T09:31:33;6.37;;;5.90;;
6127;SDS011;7073;42.672;23.256;2023-08-31T09:33:59;4.70;;;4.50;;
6127;SDS011;7073;42.672;23.256;2023-08-31T09:36:26;5.43;;;5.13;;
6127;SDS011;7073;42.672;23.256;2023-08-31T09:38:56;6.13;;;5.80;;
6127;SDS011;7073;42.672;23.256;2023-08-31T09:41:24;5.10;;;4.90;;
6127;SDS011;7073;42.672;23.256;2023-08-31T09:43:50;5.57;;;5.37;;
6127;SDS011;7073;42.672;23.256;2023-08-31T09:46:17;5.70;;;5.50;;
6127;SDS011;7073;42.672;23.256;2023-08-31T09:48:44;6.03;;;5.60;;
6127;SDS011;7073;42.672;23.256;2023-08-31T09:51:11;6.73;;;6.23;;
6127;SDS011;7073;42.672;23.256;2023-08-31T09:53:37;5.57;;;5.27;;
6127;SDS011;7073;42.672;23.256;2023-08-31T09:56:04;6.33;;;5.93;;
6127;SDS011;7073;42.672;23.256;2023-08-31T09:58:32;5.37;;;5.17;;
6127;SDS011;7073;42.672;23.256;2023-08-31T10:00:59;7.00;;;6.57;;
6127;SDS011;7073;42.672;23.256;2023-08-31T10:03:25;7.30;;;6.67;;
6127;SDS011;7073;42.672;23.256;2023-08-31T10:05:52;6.70;;;6.30;;
6127;SDS011;7073;42.672;23.256;2023-08-31T10:08:20;5.40;;;5.20;;
6127;SDS011;7073;42.672;23.256;2023-08-31T10:10:46;5.43;;;5.23;;
6127;SDS011;7073;42.672;23.256;2023-08-31T10:13:13;5.67;;;5.47;;
6127;SDS011;7073;42.672;23.256;2023-08-31T10:15:41;6.50;;;6.20;;
6127;SDS011;7073;42.672;23.256;2023-08-31T10:18:09;6.33;;;6.03;;
6127;SDS011;7073;42.672;23.256;2023-08-31T10:20:35;12.60;;;7.60;;
6127;SDS011;7073;42.672;23.256;2023-08-31T10:23:02;7.93;;;7.53;;
6127;SDS011;7073;42.672;23.256;2023-08-31T10:28:16;6.00;;;5.70;;
6127;SDS011;7073;42.672;23.256;2023-08-31T10:30:45;6.90;;;6.50;;
6127;SDS011;7073;42.672;23.256;2023-08-31T10:33:26;6.83;;;6.43;;
6127;SDS011;7073;42.672;23.256;2023-08-31T10:35:54;5.83;;;5.63;;
6127;SDS011;7073;42.672;23.256;2023-08-31T10:38:24;5.60;;;5.40;;
6127;SDS011;7073;42.672;23.256;2023-08-31T10:41:01;6.00;;;5.70;;
6127;SDS011;7073;42.672;23.256;2023-08-31T10:43:32;7.00;;;6.70;;
6127;SDS011;7073;42.672;23.256;2023-08-31T10:46:16;9.13;;;8.33;;
6127;SDS011;7073;42.672;23.256;2023-08-31T10:48:52;5.60;;;5.40;;
6127;SDS011;7073;42.672;23.256;2023-08-31T10:51:21;8.70;;;7.97;;
6127;SDS011;7073;42.672;23.256;2023-08-31T10:53:47;5.77;;;5.57;;
6127;SDS011;7073;42.672;23.256;2023-08-31T10:56:15;6.50;;;6.00;;
6127;SDS011;7073;42.672;23.256;2023-08-31T10:58:41;8.00;;;7.40;;
6127;SDS011;7073;42.672;23.256;2023-08-31T11:01:09;7.20;;;6.80;;
6127;SDS011;7073;42.672;23.256;2023-08-31T11:06:20;5.70;;;5.50;;
6127;SDS011;7073;42.672;23.256;2023-08-31T11:08:46;7.20;;;6.60;;
6127;SDS011;7073;42.672;23.256;2023-08-31T11:11:13;6.00;;;5.70;;
6127;SDS011;7073;42.672;23.256;2023-08-31T11:13:45;6.60;;;6.20;;
6127;SDS011;7073;42.672;23.256;2023-08-31T11:16:12;6.77;;;6.27;;
6127;SDS011;7073;42.672;23.256;2023-08-31T11:18:38;6.00;;;5.70;;
6127;SDS011;7073;42.672;23.256;2023-08-31T11:21:05;5.17;;;4.77;;
6127;SDS011;7073;42.672;23.256;2023-08-31T11:23:33;4.70;;;4.50;;
6127;SDS011;7073;42.672;23.256;2023-08-31T11:26:00;5.30;;;5.10;;
6127;SDS011;7073;42.672;23.256;2023-08-31T11:28:32;5.00;;;4.70;;
6127;SDS011;7073;42.672;23.256;2023-08-31T11:30:59;4.77;;;4.57;;
6127;SDS011;7073;42.672;23.256;2023-08-31T11:33:27;4.57;;;4.37;;
6127;SDS011;7073;42.672;23.256;2023-08-31T11:35:57;5.27;;;4.90;;
6127;SDS011;7073;42.672;23.256;2023-08-31T11:38:24;4.70;;;4.50;;
6127;SDS011;7073;42.672;23.256;2023-08-31T11:40:56;4.63;;;4.43;;
6127;SDS011;7073;42.672;23.256;2023-08-31T11:43:23;5.13;;;4.90;;
6127;SDS011;7073;42.672;23.256;2023-08-31T11:45:50;6.00;;;5.40;;
6127;SDS011;7073;42.672;23.256;2023-08-31T11:48:16;5.23;;;4.80;;
6127;SDS011;7073;42.672;23.256;2023-08-31T11:50:43;6.43;;;6.17;;
6127;SDS011;7073;42.672;23.256;2023-08-31T11:53:10;5.00;;;4.80;;
6127;SDS011;7073;42.672;23.256;2023-08-31T11:55:36;5.37;;;4.97;;
6127;SDS011;7073;42.672;23.256;2023-08-31T11:58:16;6.63;;;6.03;;
6127;SDS011;7073;42.672;23.256;2023-08-31T12:00:42;5.20;;;5.00;;
6127;SDS011;7073;42.672;23.256;2023-08-31T12:03:11;5.10;;;4.90;;
6127;SDS011;7073;42.672;23.256;2023-08-31T12:05:47;5.27;;;5.07;;
6127;SDS011;7073;42.672;23.256;2023-08-31T12:08:14;5.43;;;5.23;;
6127;SDS011;7073;42.672;23.256;2023-08-31T12:10:41;5.90;;;5.40;;
6127;SDS011;7073;42.672;23.256;2023-08-31T12:13:08;6.43;;;5.93;;
6127;SDS011;7073;42.672;23.256;2023-08-31T12:15:36;5.77;;;5.47;;
6127;SDS011;7073;42.672;23.256;2023-08-31T12:18:06;6.67;;;5.90;;
6127;SDS011;7073;42.672;23.256;2023-08-31T12:20:33;5.93;;;5.67;;
6127;SDS011;7073;42.672;23.256;2023-08-31T12:23:06;5.17;;;4.97;;
6127;SDS011;7073;42.672;23.256;2023-08-31T12:25:32;5.43;;;5.23;;
6127;SDS011;7073;42.672;23.256;2023-08-31T12:27:59;5.73;;;5.50;;
6127;SDS011;7073;42.672;23.256;2023-08-31T12:30:26;6.90;;;6.50;;
6127;SDS011;7073;42.672;23.256;2023-08-31T12:32:54;5.77;;;5.57;;
6127;SDS011;7073;42.672;23.256;2023-08-31T12:35:20;6.60;;;6.30;;
6127;SDS011;7073;42.672;23.256;2023-08-31T12:37:47;10.70;;;6.00;;
6127;SDS011;7073;42.672;23.256;2023-08-31T12:40:13;6.53;;;6.20;;
6127;SDS011;7073;42.672;23.256;2023-08-31T12:42:40;5.07;;;4.87;;
6127;SDS011;7073;42.672;23.256;2023-08-31T12:45:07;6.40;;;6.00;;
6127;SDS011;7073;42.672;23.256;2023-08-31T12:47:34;5.90;;;5.60;;
6127;SDS011;7073;42.672;23.256;2023-08-31T12:50:02;6.67;;;6.00;;
6127;SDS011;7073;42.672;23.256;2023-08-31T12:52:29;6.23;;;5.93;;
6127;SDS011;7073;42.672;23.256;2023-08-31T12:54:55;5.70;;;5.50;;
6127;SDS011;7073;42.672;23.256;2023-08-31T12:57:22;5.80;;;5.60;;
6127;SDS011;7073;42.672;23.256;2023-08-31T12:59:48;5.90;;;5.70;;
6127;SDS011;7073;42.672;23.256;2023-08-31T13:02:15;6.20;;;6.00;;
6127;SDS011;7073;42.672;23.256;2023-08-31T13:04:41;5.90;;;5.70;;
6127;SDS011;7073;42.672;23.256;2023-08-31T13:07:09;7.20;;;6.90;;
6127;SDS011;7073;42.672;23.256;2023-08-31T13:09:36;6.33;;;6.13;;
6127;SDS011;7073;42.672;23.256;2023-08-31T13:12:02;5.87;;;5.67;;
6127;SDS011;7073;42.672;23.256;2023-08-31T13:14:29;6.60;;;6.40;;
6127;SDS011;7073;42.672;23.256;2023-08-31T13:16:56;5.23;;;5.03;;
6127;SDS011;7073;42.672;23.256;2023-08-31T13:19:22;5.40;;;5.20;;
6127;SDS011;7073;42.672;23.256;2023-08-31T13:21:49;5.40;;;5.20;;
6127;SDS011;7073;42.672;23.256;2023-08-31T13:24:17;6.33;;;6.03;;
6127;SDS011;7073;42.672;23.256;2023-08-31T13:26:43;6.27;;;6.00;;
6127;SDS011;7073;42.672;23.256;2023-08-31T13:29:12;6.10;;;5.90;;
6127;SDS011;7073;42.672;23.256;2023-08-31T13:31:38;6.63;;;6.33;;
6127;SDS011;7073;42.672;23.256;2023-08-31T13:34:05;5.40;;;5.20;;
6127;SDS011;7073;42.672;23.256;2023-08-31T13:36:32;5.27;;;5.07;;
6127;SDS011;7073;42.672;23.256;2023-08-31T13:38:59;6.10;;;5.90;;
6127;SDS011;7073;42.672;23.256;2023-08-31T13:41:27;7.40;;;6.90;;
6127;SDS011;7073;42.672;23.256;2023-08-31T13:43:53;6.00;;;5.80;;
6127;SDS011;7073;42.672;23.256;2023-08-31T13:46:20;5.60;;;5.40;;
6127;SDS011;7073;42.672;23.256;2023-08-31T13:48:46;5.10;;;4.90;;
6127;SDS011;7073;42.672;23.256;2023-08-31T13:51:13;5.20;;;5.00;;
6127;SDS011;7073;42.672;23.256;2023-08-31T13:53:40;5.47;;;5.27;;
6127;SDS011;7073;42.672;23.256;2023-08-31T13:56:06;5.63;;;5.43;;
6127;SDS011;7073;42.672;23.256;2023-08-31T13:58:34;5.70;;;5.50;;
6127;SDS011;7073;42.672;23.256;2023-08-31T14:01:00;5.73;;;5.47;;
6127;SDS011;7073;42.672;23.256;2023-08-31T14:03:28;4.90;;;4.70;;
6127;SDS011;7073;42.672;23.256;2023-08-31T14:05:54;7.53;;;7.23;;
6127;SDS011;7073;42.672;23.256;2023-08-31T14:08:21;6.93;;;6.53;;
6127;SDS011;7073;42.672;23.256;2023-08-31T14:10:47;5.50;;;5.30;;
6127;SDS011;7073;42.672;23.256;2023-08-31T14:13:14;5.70;;;5.40;;
6127;SDS011;7073;42.672;23.256;2023-08-31T14:15:45;5.40;;;5.20;;
6127;SDS011;7073;42.672;23.256;2023-08-31T14:18:12;5.60;;;5.40;;
6127;SDS011;7073;42.672;23.256;2023-08-31T14:20:39;6.67;;;6.37;;
6127;SDS011;7073;42.672;23.256;2023-08-31T14:23:05;5.90;;;5.70;;
6127;SDS011;7073;42.672;23.256;2023-08-31T14:25:33;6.07;;;5.80;;
6127;SDS011;7073;42.672;23.256;2023-08-31T14:28:00;5.73;;;5.53;;
6127;SDS011;7073;42.672;23.256;2023-08-31T14:30:28;6.73;;;6.43;;
6127;SDS011;7073;42.672;23.256;2023-08-31T14:32:56;6.27;;;5.97;;
6127;SDS011;7073;42.672;23.256;2023-08-31T14:35:22;8.00;;;7.50;;
6127;SDS011;7073;42.672;23.256;2023-08-31T14:37:49;6.97;;;6.67;;
6127;SDS011;7073;42.672;23.256;2023-08-31T14:40:15;8.73;;;8.00;;
6127;SDS011;7073;42.672;23.256;2023-08-31T14:42:42;6.13;;;5.83;;
6127;SDS011;7073;42.672;23.256;2023-08-31T14:45:08;6.60;;;6.30;;
6127;SDS011;7073;42.672;23.256;2023-08-31T14:47:35;6.13;;;5.93;;
6127;SDS011;7073;42.672;23.256;2023-08-31T14:50:03;6.33;;;6.03;;
6127;SDS011;7073;42.672;23.256;2023-08-31T14:52:30;6.00;;;5.57;;
6127;SDS011;7073;42.672;23.256;2023-08-31T14:54:57;6.90;;;6.53;;
6127;SDS011;7073;42.672;23.256;2023-08-31T14:57:23;6.00;;;5.70;;
6127;SDS011;7073;42.672;23.256;2023-08-31T14:59:50;6.00;;;5.73;;
6127;SDS011;7073;42.672;23.256;2023-08-31T15:02:18;7.00;;;6.60;;
6127;SDS011;7073;42.672;23.256;2023-08-31T15:04:47;6.73;;;6.40;;
6127;SDS011;7073;42.672;23.256;2023-08-31T15:07:15;6.00;;;5.80;;